createdAt,value
2023-04-13T00:00:50.551Z,8.40
2023-04-13T00:03:18.733Z,8.60
2023-04-13T00:05:48.567Z,8.93
2023-04-13T00:08:17.036Z,8.18
2023-04-13T00:10:45.888Z,9.45
2023-04-13T00:13:14.897Z,8.13
2023-04-13T00:15:43.402Z,8.75
2023-04-13T00:18:11.601Z,8.50
2023-04-13T00:20:40.996Z,8.45
2023-04-13T00:23:10.245Z,8.38
2023-04-13T00:25:38.123Z,8.23
2023-04-13T00:28:06.466Z,8.10
2023-04-13T00:30:34.508Z,8.20
2023-04-13T00:33:05.845Z,8.38
2023-04-13T00:35:33.993Z,8.20
2023-04-13T00:38:02.792Z,7.70
2023-04-13T00:40:32.316Z,8.57
2023-04-13T00:43:02.009Z,7.78
2023-04-13T00:45:29.930Z,8.07
2023-04-13T00:48:00.160Z,8.20
2023-04-13T00:50:28.347Z,8.20
2023-04-13T00:52:57.840Z,7.93
2023-04-13T00:55:27.664Z,7.93
2023-04-13T00:57:57.820Z,7.70
2023-04-13T01:00:26.757Z,7.38
2023-04-13T01:02:56.020Z,8.52
2023-04-13T01:05:25.527Z,8.20
2023-04-13T01:08:02.519Z,7.45
2023-04-13T01:10:34.710Z,7.63
2023-04-13T01:13:10.824Z,7.53
2023-04-13T01:15:46.751Z,7.25
2023-04-13T01:18:16.976Z,8.00
2023-04-13T01:20:46.425Z,7.45
2023-04-13T01:23:34.187Z,7.55
2023-04-13T01:26:08.773Z,7.35
2023-04-13T01:28:38.489Z,7.53
2023-04-13T01:31:11.990Z,7.63
2023-04-13T01:33:40.627Z,6.82
2023-04-13T01:36:10.447Z,7.38
2023-04-13T01:38:38.830Z,7.70
2023-04-13T01:41:10.303Z,7.30
2023-04-13T01:43:42.894Z,7.43
2023-04-13T01:46:13.949Z,6.93
2023-04-13T01:48:53.372Z,7.05
2023-04-13T01:51:41.581Z,7.05
2023-04-13T01:54:12.834Z,7.20
2023-04-13T01:56:43.362Z,7.47
2023-04-13T01:59:13.204Z,7.57
2023-04-13T02:01:41.626Z,7.50
2023-04-13T02:04:09.973Z,6.85
2023-04-13T02:06:40.903Z,7.40
2023-04-13T02:09:09.970Z,7.43
2023-04-13T02:11:38.683Z,7.00
2023-04-13T02:14:09.554Z,7.13
2023-04-13T02:16:39.701Z,7.30
2023-04-13T02:19:08.013Z,6.78
2023-04-13T02:21:37.131Z,7.07
2023-04-13T02:24:05.881Z,7.10
2023-04-13T02:26:33.883Z,7.07
2023-04-13T02:29:02.148Z,6.50
2023-04-13T02:31:31.878Z,6.80
2023-04-13T02:34:01.751Z,7.03
2023-04-13T02:36:31.178Z,7.55
2023-04-13T02:39:04.099Z,6.85
2023-04-13T02:41:34.742Z,7.47
2023-04-13T02:44:03.411Z,7.03
2023-04-13T02:46:41.900Z,7.30
2023-04-13T02:49:16.236Z,6.78
2023-04-13T02:52:04.891Z,7.00
2023-04-13T02:54:54.268Z,7.05
2023-04-13T02:57:25.176Z,7.05
2023-04-13T02:59:54.543Z,7.18
2023-04-13T03:02:26.555Z,6.95
2023-04-13T03:04:56.345Z,7.07
2023-04-13T03:07:28.355Z,6.90
2023-04-13T03:09:56.595Z,6.95
2023-04-13T03:12:26.421Z,7.07
2023-04-13T03:14:54.865Z,7.05
2023-04-13T03:17:23.629Z,7.13
2023-04-13T03:19:52.087Z,7.07
2023-04-13T03:22:24.160Z,7.30
2023-04-13T03:24:52.209Z,6.80
2023-04-13T03:27:28.620Z,6.80
2023-04-13T03:29:56.604Z,6.50
2023-04-13T03:32:24.557Z,7.05
2023-04-13T03:34:58.860Z,6.78
2023-04-13T03:37:30.374Z,6.75
2023-04-13T03:40:04.076Z,6.60
2023-04-13T03:42:40.092Z,6.40
2023-04-13T03:45:08.902Z,6.90
2023-04-13T03:47:38.940Z,6.93
2023-04-13T03:50:08.784Z,6.40
2023-04-13T03:52:38.619Z,6.22
2023-04-13T03:55:07.014Z,6.88
2023-04-13T03:57:37.308Z,7.07
2023-04-13T04:00:13.818Z,6.82
2023-04-13T04:02:41.946Z,6.70
2023-04-13T04:05:16.439Z,6.47
2023-04-13T04:07:47.616Z,6.43
2023-04-13T04:10:17.697Z,6.40
2023-04-13T04:12:45.781Z,6.55
2023-04-13T04:15:13.786Z,6.80
2023-04-13T04:17:43.480Z,6.43
2023-04-13T04:20:13.582Z,6.85
2023-04-13T04:22:41.877Z,6.53
2023-04-13T04:25:11.740Z,7.03
2023-04-13T04:27:42.452Z,7.07
2023-04-13T04:30:11.069Z,6.65
2023-04-13T04:32:40.470Z,6.55
2023-04-13T04:35:14.313Z,6.90
2023-04-13T04:37:49.578Z,6.47
2023-04-13T04:40:20.636Z,6.78
2023-04-13T04:42:49.228Z,6.57
2023-04-13T04:45:30.089Z,6.68
2023-04-13T04:48:00.619Z,6.45
2023-04-13T04:50:28.881Z,6.40
2023-04-13T04:53:08.770Z,6.60
2023-04-13T04:55:38.019Z,6.05
2023-04-13T04:58:06.585Z,6.68
2023-04-13T05:00:35.608Z,6.53
2023-04-13T05:03:10.098Z,6.28
2023-04-13T05:05:41.482Z,6.55
2023-04-13T05:08:13.380Z,6.50
2023-04-13T05:10:47.039Z,6.65
2023-04-13T05:13:15.017Z,6.78
2023-04-13T05:15:48.923Z,6.50
2023-04-13T05:18:18.845Z,6.45
2023-04-13T05:20:47.249Z,6.85
2023-04-13T05:23:15.185Z,6.53
2023-04-13T05:25:52.720Z,6.93
2023-04-13T05:28:22.822Z,6.53
2023-04-13T05:30:52.486Z,7.03
2023-04-13T05:33:20.649Z,6.63
2023-04-13T05:35:53.164Z,6.75
2023-04-13T05:38:21.557Z,8.05
2023-04-13T05:40:50.824Z,7.47
2023-04-13T05:43:19.091Z,7.97
2023-04-13T05:45:50.678Z,7.85
2023-04-13T05:48:18.905Z,7.57
2023-04-13T05:50:47.863Z,7.30
2023-04-13T05:53:15.821Z,8.27
2023-04-13T05:55:56.936Z,8.88
2023-04-13T05:58:26.522Z,11.48
2023-04-13T06:01:04.829Z,9.55
2023-04-13T06:03:34.736Z,9.23
2023-04-13T06:06:04.674Z,11.40
2023-04-13T06:08:32.858Z,9.60
2023-04-13T06:11:02.956Z,9.85
2023-04-13T06:13:31.707Z,11.70
2023-04-13T06:15:59.753Z,12.50
2023-04-13T06:18:27.686Z,12.98
2023-04-13T06:20:55.967Z,12.48
2023-04-13T06:23:23.848Z,12.75
2023-04-13T06:25:54.983Z,12.00
2023-04-13T06:28:34.677Z,10.93
2023-04-13T06:31:02.705Z,11.07
2023-04-13T06:33:31.571Z,11.05
2023-04-13T06:35:59.576Z,11.13
2023-04-13T06:38:27.883Z,10.93
2023-04-13T06:41:04.650Z,10.63
2023-04-13T06:43:37.070Z,10.63
2023-04-13T06:46:15.913Z,10.25
2023-04-13T06:48:47.129Z,9.88
2023-04-13T06:51:17.738Z,10.90
2023-04-13T06:53:46.588Z,10.52
2023-04-13T06:56:15.843Z,9.90
2023-04-13T06:58:45.944Z,9.82
2023-04-13T07:01:14.021Z,10.65
2023-04-13T07:03:42.620Z,10.23
2023-04-13T07:06:11.634Z,10.75
2023-04-13T07:08:40.148Z,10.10
2023-04-13T07:11:08.470Z,9.63
2023-04-13T07:13:39.894Z,10.93
2023-04-13T07:16:13.145Z,10.07
2023-04-13T07:18:45.628Z,9.82
2023-04-13T07:21:13.621Z,9.93
2023-04-13T07:23:54.196Z,10.00
2023-04-13T07:26:22.210Z,10.25
2023-04-13T07:28:51.019Z,10.18
2023-04-13T07:31:22.835Z,9.55
2023-04-13T07:33:54.481Z,10.02
2023-04-13T07:36:29.043Z,10.20
2023-04-13T07:39:01.548Z,9.63
2023-04-13T07:41:31.566Z,9.32
2023-04-13T07:44:02.148Z,9.38
2023-04-13T07:46:31.664Z,9.73
2023-04-13T07:49:00.518Z,9.60
2023-04-13T07:51:34.593Z,9.52
2023-04-13T07:54:06.824Z,9.82
2023-04-13T07:56:37.888Z,9.88
2023-04-13T07:59:08.391Z,9.45
2023-04-13T08:01:39.271Z,8.77
2023-04-13T08:04:12.153Z,8.95
2023-04-13T08:06:42.424Z,9.15
2023-04-13T08:09:10.682Z,9.98
2023-04-13T08:11:38.613Z,9.10
2023-04-13T08:14:09.922Z,8.88
2023-04-13T08:16:42.256Z,9.50
2023-04-13T08:19:13.698Z,9.10
2023-04-13T08:21:49.549Z,8.43
2023-04-13T08:24:20.687Z,8.32
2023-04-13T08:26:48.807Z,9.02
2023-04-13T08:29:17.543Z,8.32
2023-04-13T08:31:47.181Z,8.85
2023-04-13T08:34:18.883Z,8.77
2023-04-13T08:36:47.943Z,9.00
2023-04-13T08:39:16.625Z,8.52
2023-04-13T08:41:46.171Z,8.82
2023-04-13T08:44:16.514Z,8.15
2023-04-13T08:46:51.240Z,8.70
2023-04-13T08:49:25.016Z,8.35
2023-04-13T08:52:14.444Z,7.95
2023-04-13T08:54:46.024Z,8.60
2023-04-13T08:57:22.412Z,8.55
2023-04-13T08:59:52.645Z,8.45
2023-04-13T09:02:26.823Z,8.73
2023-04-13T09:05:05.492Z,8.77
2023-04-13T09:07:36.723Z,8.27
2023-04-13T09:10:11.630Z,8.27
2023-04-13T09:12:41.725Z,8.25
2023-04-13T09:15:11.380Z,8.15
2023-04-13T09:17:48.695Z,7.72
2023-04-13T09:20:18.930Z,8.27
2023-04-13T09:22:46.868Z,8.23
2023-04-13T09:25:22.518Z,8.45
2023-04-13T09:27:51.988Z,7.57
2023-04-13T09:30:21.454Z,8.07
2023-04-13T09:33:02.147Z,7.90
2023-04-13T09:35:31.259Z,9.88
2023-04-13T09:37:59.791Z,13.93
2023-04-13T09:40:27.855Z,11.82
2023-04-13T09:42:56.558Z,11.65
2023-04-13T09:45:24.581Z,12.27
2023-04-13T09:47:56.031Z,12.85
2023-04-13T09:50:28.226Z,12.00
2023-04-13T09:53:02.184Z,12.98
2023-04-13T09:55:31.351Z,13.48
2023-04-13T09:58:09.947Z,13.60
2023-04-13T10:00:38.903Z,13.43
2023-04-13T10:03:11.866Z,13.18
2023-04-13T10:05:55.406Z,13.25
2023-04-13T10:08:37.414Z,13.60
2023-04-13T10:11:09.027Z,13.65
2023-04-13T10:13:39.861Z,14.05
2023-04-13T10:16:33.751Z,13.00
2023-04-13T10:19:05.238Z,12.32
2023-04-13T10:21:35.774Z,12.25
2023-04-13T10:24:11.300Z,13.35
2023-04-13T10:26:41.225Z,12.68
2023-04-13T10:29:13.570Z,12.13
2023-04-13T10:31:42.749Z,12.90
2023-04-13T10:34:13.951Z,11.70
2023-04-13T10:36:43.221Z,12.63
2023-04-13T10:39:11.536Z,12.25
2023-04-13T10:41:39.613Z,12.23
2023-04-13T10:44:08.668Z,12.27
2023-04-13T10:46:37.037Z,11.63
2023-04-13T10:49:05.720Z,11.93
2023-04-13T10:51:41.526Z,11.80
2023-04-13T10:54:09.924Z,11.93
2023-04-13T10:56:38.160Z,11.82
2023-04-13T10:59:06.108Z,11.88
2023-04-13T11:01:34.719Z,11.18
2023-04-13T11:04:10.958Z,10.90
2023-04-13T11:06:43.243Z,11.20
2023-04-13T11:09:12.982Z,11.05
2023-04-13T11:11:43.187Z,10.38
2023-04-13T11:14:19.241Z,10.38
2023-04-13T11:16:49.185Z,10.18
2023-04-13T11:19:17.308Z,10.98
2023-04-13T11:21:48.846Z,10.02
2023-04-13T11:24:25.687Z,10.55
2023-04-13T11:26:54.293Z,10.80
2023-04-13T11:29:22.431Z,10.18
2023-04-13T11:31:51.223Z,10.20
2023-04-13T11:34:29.799Z,10.00
2023-04-13T11:37:05.165Z,9.88
2023-04-13T11:39:33.399Z,10.10
2023-04-13T11:42:06.845Z,9.52
2023-04-13T11:44:35.826Z,9.75
2023-04-13T11:47:04.017Z,10.05
2023-04-13T11:49:32.051Z,9.88
2023-04-13T11:52:00.033Z,9.57
2023-04-13T11:54:29.954Z,9.90
2023-04-13T11:56:57.900Z,9.32
2023-04-13T11:59:26.362Z,9.90
2023-04-13T12:02:02.285Z,8.93
2023-04-13T12:04:38.502Z,8.68
2023-04-13T12:07:11.654Z,9.00
2023-04-13T12:09:56.116Z,9.15
2023-04-13T12:12:50.737Z,9.07
2023-04-13T12:15:33.478Z,9.55
2023-04-13T12:18:13.901Z,8.95
2023-04-13T12:20:44.376Z,8.80
2023-04-13T12:23:23.075Z,8.80
2023-04-13T12:25:57.267Z,8.90
2023-04-13T12:28:31.606Z,8.32
2023-04-13T12:31:04.780Z,7.85
2023-04-13T12:33:32.740Z,8.05
2023-04-13T12:36:00.852Z,8.10
2023-04-13T12:38:28.909Z,8.55
2023-04-13T12:40:58.398Z,7.82
2023-04-13T12:43:26.601Z,8.27
2023-04-13T12:45:54.937Z,8.40
2023-04-13T12:48:22.939Z,7.88
2023-04-13T12:50:50.926Z,7.65
2023-04-13T12:53:18.872Z,7.35
2023-04-13T12:55:46.953Z,6.95
2023-04-13T12:58:16.508Z,7.65
2023-04-13T13:00:44.496Z,7.40
2023-04-13T13:03:14.828Z,7.65
2023-04-13T13:05:42.965Z,7.03
2023-04-13T13:08:11.010Z,6.95
2023-04-13T13:10:38.936Z,6.70
2023-04-13T13:13:06.909Z,6.95
2023-04-13T13:15:36.134Z,7.18
2023-04-13T13:18:06.688Z,7.13
2023-04-13T13:20:40.934Z,6.28
2023-04-13T13:23:10.472Z,7.00
2023-04-13T13:25:41.323Z,6.50
2023-04-13T13:28:15.604Z,6.40
2023-04-13T13:30:45.490Z,6.30
2023-04-13T13:33:13.518Z,6.47
2023-04-13T13:35:41.754Z,6.05
2023-04-13T13:38:09.728Z,6.35
2023-04-13T13:40:37.664Z,5.70
2023-04-13T13:43:05.845Z,6.03
2023-04-13T13:45:33.856Z,5.70
2023-04-13T13:48:07.623Z,5.60
2023-04-13T13:50:43.730Z,5.85
2023-04-13T13:53:13.173Z,5.78
2023-04-13T13:55:43.152Z,5.60
2023-04-13T13:58:11.259Z,5.75
2023-04-13T14:00:39.607Z,5.63
2023-04-13T14:03:09.126Z,5.45
2023-04-13T14:05:37.604Z,5.32
2023-04-13T14:08:06.194Z,5.20
2023-04-13T14:10:35.682Z,5.13
2023-04-13T14:13:03.624Z,5.15
2023-04-13T14:15:31.661Z,5.18
2023-04-13T14:18:09.088Z,6.03
2023-04-13T14:20:40.687Z,5.43
2023-04-13T14:23:09.530Z,5.15
2023-04-13T14:25:38.293Z,5.40
2023-04-13T14:28:06.760Z,5.00
2023-04-13T14:30:34.773Z,4.90
2023-04-13T14:33:04.041Z,5.00
2023-04-13T14:35:32.089Z,5.20
2023-04-13T14:38:01.929Z,5.38
2023-04-13T14:40:29.841Z,4.80
2023-04-13T14:42:57.731Z,4.75
2023-04-13T14:45:26.124Z,4.68
2023-04-13T14:47:54.695Z,4.80
2023-04-13T14:50:22.872Z,4.78
2023-04-13T14:52:51.276Z,5.00
2023-04-13T14:55:20.790Z,4.65
2023-04-13T14:57:48.706Z,4.75
2023-04-13T15:00:22.280Z,4.50
2023-04-13T15:02:52.645Z,4.93
2023-04-13T15:05:21.323Z,4.72
2023-04-13T15:07:50.757Z,4.32
2023-04-13T15:10:21.357Z,4.93
2023-04-13T15:12:49.467Z,4.80
2023-04-13T15:15:17.535Z,4.38
2023-04-13T15:17:45.574Z,4.70
2023-04-13T15:20:13.570Z,4.32
2023-04-13T15:22:41.438Z,4.88
2023-04-13T15:25:09.971Z,4.93
2023-04-13T15:27:39.261Z,4.70
2023-04-13T15:30:10.037Z,4.80
2023-04-13T15:32:38.024Z,4.80
2023-04-13T15:35:06.502Z,4.90
2023-04-13T15:37:34.384Z,5.05
2023-04-13T15:40:04.779Z,4.75
2023-04-13T15:42:32.868Z,4.97
2023-04-13T15:45:02.169Z,5.20
2023-04-13T15:47:30.173Z,5.40
2023-04-13T15:49:58.122Z,5.75
2023-04-13T15:52:26.161Z,4.85
2023-04-13T15:54:54.994Z,5.35
2023-04-13T15:57:22.929Z,5.18
2023-04-13T15:59:50.883Z,4.80
2023-04-13T16:02:20.175Z,5.38
2023-04-13T16:04:48.222Z,5.65
2023-04-13T16:07:16.283Z,5.53
2023-04-13T16:09:44.704Z,5.38
2023-04-13T16:12:12.770Z,5.43
2023-04-13T16:14:41.955Z,5.72
2023-04-13T16:17:10.350Z,5.70
2023-04-13T16:19:39.909Z,5.78
2023-04-13T16:22:10.408Z,6.00
2023-04-13T16:24:38.578Z,5.53
2023-04-13T16:27:07.248Z,5.63
2023-04-13T16:29:35.194Z,5.65
2023-04-13T16:32:03.115Z,6.20
2023-04-13T16:34:31.037Z,6.07
2023-04-13T16:37:00.293Z,6.03
2023-04-13T16:39:28.237Z,6.13
2023-04-13T16:41:56.345Z,5.70
2023-04-13T16:44:24.273Z,6.18
2023-04-13T16:46:52.229Z,5.82
2023-04-13T16:49:20.288Z,5.80
2023-04-13T16:51:49.102Z,6.60
2023-04-13T16:54:19.245Z,5.82
2023-04-13T16:56:47.216Z,5.43
2023-04-13T16:59:15.148Z,5.90
2023-04-13T17:01:43.018Z,6.07
2023-04-13T17:04:11.231Z,5.95
2023-04-13T17:06:39.397Z,6.20
2023-04-13T17:09:08.112Z,5.80
2023-04-13T17:11:37.360Z,6.05
2023-04-13T17:14:05.386Z,6.00
2023-04-13T17:16:33.367Z,5.90
2023-04-13T17:19:01.574Z,5.82
2023-04-13T17:21:29.934Z,6.00
2023-04-13T17:23:57.850Z,5.82
2023-04-13T17:26:26.052Z,5.63
2023-04-13T17:28:55.500Z,5.57
2023-04-13T17:31:24.345Z,5.75
2023-04-13T17:33:56.412Z,6.20
2023-04-13T17:36:24.316Z,6.05
2023-04-13T17:38:52.795Z,6.00
2023-04-13T17:41:20.911Z,6.03
2023-04-13T17:43:48.895Z,6.20
2023-04-13T17:46:18.162Z,5.78
2023-04-13T17:48:46.145Z,5.80
2023-04-13T17:51:16.506Z,5.50
2023-04-13T17:53:45.188Z,5.75
2023-04-13T17:56:15.639Z,5.90
2023-04-13T17:58:43.914Z,5.63
2023-04-13T18:01:13.383Z,5.88
2023-04-13T18:03:43.276Z,5.78
2023-04-13T18:06:11.834Z,5.72
2023-04-13T18:08:39.769Z,6.03
2023-04-13T18:11:07.646Z,6.00
2023-04-13T18:13:35.535Z,5.80
2023-04-13T18:16:04.297Z,6.13
2023-04-13T18:18:32.241Z,5.82
2023-04-13T18:21:01.589Z,6.07
2023-04-13T18:23:30.497Z,5.55
2023-04-13T18:25:59.385Z,5.60
2023-04-13T18:28:29.405Z,5.47
2023-04-13T18:31:00.141Z,5.80
2023-04-13T18:33:28.258Z,5.80
2023-04-13T18:35:56.192Z,5.90
2023-04-13T18:38:25.477Z,5.47
2023-04-13T18:40:53.373Z,5.78
2023-04-13T18:43:22.948Z,6.13
2023-04-13T18:45:51.270Z,6.38
2023-04-13T18:48:19.317Z,5.70
2023-04-13T18:50:48.271Z,6.18
2023-04-13T18:53:16.335Z,6.28
2023-04-13T18:55:50.641Z,6.63
2023-04-13T18:58:19.636Z,6.25
2023-04-13T19:00:47.751Z,6.35
2023-04-13T19:03:15.775Z,6.15
2023-04-13T19:05:43.767Z,6.78
2023-04-13T19:08:13.370Z,6.55
2023-04-13T19:10:42.332Z,6.13
2023-04-13T19:13:11.610Z,6.28
2023-04-13T19:15:39.503Z,6.55
2023-04-13T19:18:07.695Z,6.95
2023-04-13T19:20:35.578Z,7.07
2023-04-13T19:23:03.486Z,6.75
2023-04-13T19:25:31.427Z,6.63
2023-04-13T19:27:59.355Z,6.35
2023-04-13T19:30:30.115Z,6.97
2023-04-13T19:32:58.363Z,6.70
2023-04-13T19:35:26.363Z,6.40
2023-04-13T19:37:54.353Z,6.68
2023-04-13T19:40:23.209Z,6.28
2023-04-13T19:42:51.371Z,6.53
2023-04-13T19:45:19.247Z,6.18
2023-04-13T19:47:48.547Z,6.30
2023-04-13T19:50:16.640Z,7.13
2023-04-13T19:52:47.171Z,7.07
2023-04-13T19:55:15.503Z,6.60
2023-04-13T19:57:43.504Z,6.70
2023-04-13T20:00:22.731Z,6.78
2023-04-13T20:03:00.219Z,6.32
2023-04-13T20:05:30.289Z,6.88
2023-04-13T20:07:58.216Z,6.63
2023-04-13T20:10:26.398Z,6.40
2023-04-13T20:12:54.633Z,6.60
2023-04-13T20:15:22.616Z,6.47
2023-04-13T20:17:52.221Z,6.43
2023-04-13T20:20:22.461Z,6.63
2023-04-13T20:22:51.681Z,7.35
2023-04-13T20:25:19.606Z,7.00
2023-04-13T20:27:47.777Z,7.28
2023-04-13T20:30:16.218Z,7.10
2023-04-13T20:32:44.206Z,7.40
2023-04-13T20:35:14.949Z,6.97
2023-04-13T20:37:44.138Z,6.90
2023-04-13T20:40:12.503Z,6.75
2023-04-13T20:42:42.201Z,6.78
2023-04-13T20:45:12.617Z,7.25
2023-04-13T20:52:02.053Z,7.13
2023-04-13T20:54:34.194Z,6.85
2023-04-13T20:57:02.370Z,6.97
2023-04-13T20:59:31.007Z,6.97
2023-04-13T21:01:59.178Z,7.30
2023-04-13T21:04:27.196Z,7.07
2023-04-13T21:06:55.143Z,6.88
2023-04-13T21:09:34.209Z,7.40
2023-04-13T21:12:43.383Z,7.07
2023-04-13T21:15:12.764Z,7.43
2023-04-13T21:17:41.001Z,7.25
2023-04-13T21:20:10.076Z,7.20
2023-04-13T21:22:38.042Z,7.55
2023-04-13T21:25:06.612Z,7.13
2023-04-13T21:27:36.089Z,7.32
2023-04-13T21:30:04.424Z,7.45
2023-04-13T21:32:32.357Z,7.18
2023-04-13T21:35:00.448Z,7.43
2023-04-13T21:37:28.974Z,7.38
2023-04-13T21:39:57.747Z,7.25
2023-04-13T21:42:25.657Z,7.35
2023-04-13T21:44:55.932Z,7.03
2023-04-13T21:47:23.877Z,7.25
2023-04-13T21:49:51.807Z,7.35
2023-04-13T21:52:19.713Z,7.03
2023-04-13T21:54:48.663Z,7.72
2023-04-13T21:57:17.631Z,7.50
2023-04-13T21:59:45.550Z,7.75
2023-04-13T22:02:14.938Z,7.43
2023-04-13T22:04:43.045Z,7.43
2023-04-13T22:07:11.019Z,7.38
2023-04-13T22:09:38.929Z,7.25
2023-04-13T22:12:07.191Z,7.82
2023-04-13T22:14:35.175Z,7.43
2023-04-13T22:17:03.050Z,7.05
2023-04-13T22:19:33.325Z,7.53
2023-04-13T22:22:01.241Z,7.82
2023-04-13T22:24:29.176Z,7.38
2023-04-13T22:26:57.200Z,7.82
2023-04-13T22:29:25.075Z,7.55
2023-04-13T22:31:53.051Z,7.57
2023-04-13T22:35:06.441Z,7.38
2023-04-13T22:38:12.624Z,7.93
2023-04-13T22:40:40.585Z,7.10
2023-04-13T22:43:08.505Z,7.75
2023-04-13T22:45:36.418Z,7.43
2023-04-13T22:48:04.492Z,7.75
2023-04-13T22:50:32.416Z,8.00
2023-04-13T22:53:01.649Z,7.13
2023-04-13T22:55:29.536Z,7.35
2023-04-13T22:57:57.417Z,7.30
2023-04-13T23:00:25.294Z,6.85
2023-04-13T23:02:55.943Z,6.95
2023-04-13T23:05:23.936Z,7.10
2023-04-13T23:08:02.470Z,7.60
2023-04-13T23:10:32.528Z,7.20
2023-04-13T23:13:00.470Z,7.03
2023-04-13T23:15:28.386Z,7.43
2023-04-13T23:17:56.469Z,7.18
2023-04-13T23:20:24.521Z,7.15
2023-04-13T23:22:52.481Z,7.28
2023-04-13T23:25:20.398Z,7.07
2023-04-13T23:27:49.786Z,7.28
2023-04-13T23:30:17.778Z,7.05
2023-04-13T23:32:45.733Z,7.05
2023-04-13T23:35:13.698Z,7.18
2023-04-13T23:37:43.101Z,6.85
2023-04-13T23:40:11.749Z,6.90
2023-04-13T23:42:39.751Z,6.78
2023-04-13T23:45:09.833Z,7.13
2023-04-13T23:47:37.921Z,6.60
2023-04-13T23:50:06.757Z,7.45
2023-04-13T23:52:34.661Z,7.15
2023-04-13T23:55:02.526Z,6.97
2023-04-13T23:57:34.479Z,7.10
